sensor_id;sensor_type;location;lat;lon;timestamp;pressure;altitude;pressure_sealevel;temperature;humidity
75247;BME280;63844;50.042;19.224;2023-08-17T00:00:03;100780.01;;;27.91;56.39
75247;BME280;63844;50.042;19.224;2023-08-17T00:01:40;100786.21;;;27.91;56.43
75247;BME280;63844;50.042;19.224;2023-08-17T00:03:15;100789.56;;;27.92;56.60
75247;BME280;63844;50.042;19.224;2023-08-17T00:04:50;100788.60;;;27.89;56.25
75247;BME280;63844;50.042;19.224;2023-08-17T00:06:26;100792.21;;;27.89;56.55
75247;BME280;63844;50.042;19.224;2023-08-17T00:08:01;100793.00;;;27.89;56.54
75247;BME280;63844;50.042;19.224;2023-08-17T00:09:38;100794.23;;;27.88;56.43
75247;BME280;63844;50.042;19.224;2023-08-17T00:11:14;100793.41;;;27.87;56.74
75247;BME280;63844;50.042;19.224;2023-08-17T00:12:49;100794.09;;;27.86;56.57
75247;BME280;63844;50.042;19.224;2023-08-17T00:14:25;100798.84;;;27.84;57.01
75247;BME280;63844;50.042;19.224;2023-08-17T00:16:00;100793.23;;;27.82;56.60
75247;BME280;63844;50.042;19.224;2023-08-17T00:17:36;100790.40;;;27.81;56.79
75247;BME280;63844;50.042;19.224;2023-08-17T00:19:11;100793.16;;;27.81;57.08
75247;BME280;63844;50.042;19.224;2023-08-17T00:20:47;100797.27;;;27.80;57.22
75247;BME280;63844;50.042;19.224;2023-08-17T00:22:23;100792.98;;;27.79;57.11
75247;BME280;63844;50.042;19.224;2023-08-17T00:23:58;100797.27;;;27.78;57.08
75247;BME280;63844;50.042;19.224;2023-08-17T00:25:34;100796.20;;;27.76;57.25
75247;BME280;63844;50.042;19.224;2023-08-17T00:27:09;100796.74;;;27.73;57.32
75247;BME280;63844;50.042;19.224;2023-08-17T00:28:44;100801.89;;;27.70;57.51
75247;BME280;63844;50.042;19.224;2023-08-17T00:30:20;100800.32;;;27.64;57.67
75247;BME280;63844;50.042;19.224;2023-08-17T00:31:55;100797.89;;;27.59;57.77
75247;BME280;63844;50.042;19.224;2023-08-17T00:33:32;100799.69;;;27.54;57.95
75247;BME280;63844;50.042;19.224;2023-08-17T00:35:07;100800.63;;;27.52;57.90
75247;BME280;63844;50.042;19.224;2023-08-17T00:36:43;100804.89;;;27.51;58.16
75247;BME280;63844;50.042;19.224;2023-08-17T00:38:18;100797.39;;;27.52;58.45
75247;BME280;63844;50.042;19.224;2023-08-17T00:39:54;100796.05;;;27.52;58.28
75247;BME280;63844;50.042;19.224;2023-08-17T00:41:29;100797.39;;;27.53;58.43
75247;BME280;63844;50.042;19.224;2023-08-17T00:43:05;100793.09;;;27.53;58.47
75247;BME280;63844;50.042;19.224;2023-08-17T00:44:41;100797.63;;;27.53;58.54
75247;BME280;63844;50.042;19.224;2023-08-17T00:46:16;100800.49;;;27.53;58.38
75247;BME280;63844;50.042;19.224;2023-08-17T00:47:56;100803.77;;;27.53;58.60
75247;BME280;63844;50.042;19.224;2023-08-17T00:49:32;100799.13;;;27.52;58.12
75247;BME280;63844;50.042;19.224;2023-08-17T00:51:09;100798.86;;;27.51;58.29
75247;BME280;63844;50.042;19.224;2023-08-17T00:52:44;100803.09;;;27.51;58.33
75247;BME280;63844;50.042;19.224;2023-08-17T00:54:24;100804.34;;;27.51;58.25
75247;BME280;63844;50.042;19.224;2023-08-17T00:56:02;100806.65;;;27.50;58.37
75247;BME280;63844;50.042;19.224;2023-08-17T00:57:39;100809.33;;;27.49;58.32
75247;BME280;63844;50.042;19.224;2023-08-17T00:59:16;100813.37;;;27.47;58.63
75247;BME280;63844;50.042;19.224;2023-08-17T01:00:51;100810.67;;;27.45;58.59
75247;BME280;63844;50.042;19.224;2023-08-17T01:02:26;100809.90;;;27.40;58.80
75247;BME280;63844;50.042;19.224;2023-08-17T01:04:02;100811.38;;;27.39;58.57
75247;BME280;63844;50.042;19.224;2023-08-17T01:05:37;100811.46;;;27.36;58.91
75247;BME280;63844;50.042;19.224;2023-08-17T01:07:13;100808.48;;;27.37;58.95
75247;BME280;63844;50.042;19.224;2023-08-17T01:08:49;100806.86;;;27.37;58.82
75247;BME280;63844;50.042;19.224;2023-08-17T01:12:55;100810.45;;;27.37;59.03
75247;BME280;63844;50.042;19.224;2023-08-17T01:14:40;100808.23;;;27.36;58.98
75247;BME280;63844;50.042;19.224;2023-08-17T01:16:25;100808.20;;;27.35;58.95
75247;BME280;63844;50.042;19.224;2023-08-17T01:18:11;100805.77;;;27.34;59.18
75247;BME280;63844;50.042;19.224;2023-08-17T01:19:52;100808.33;;;27.33;59.35
75247;BME280;63844;50.042;19.224;2023-08-17T01:21:35;100806.48;;;27.34;59.31
75247;BME280;63844;50.042;19.224;2023-08-17T01:23:13;100808.33;;;27.34;59.40
75247;BME280;63844;50.042;19.224;2023-08-17T01:24:48;100809.58;;;27.34;59.26
75247;BME280;63844;50.042;19.224;2023-08-17T01:26:24;100803.41;;;27.32;59.35
75247;BME280;63844;50.042;19.224;2023-08-17T01:27:59;100802.29;;;27.32;59.50
75247;BME280;63844;50.042;19.224;2023-08-17T01:29:35;100800.85;;;27.32;59.45
75247;BME280;63844;50.042;19.224;2023-08-17T01:31:21;100805.04;;;27.32;59.43
75247;BME280;63844;50.042;19.224;2023-08-17T01:33:04;100803.64;;;27.31;59.57
75247;BME280;63844;50.042;19.224;2023-08-17T01:34:48;100803.20;;;27.30;59.39
75247;BME280;63844;50.042;19.224;2023-08-17T01:36:30;100802.72;;;27.30;59.74
75247;BME280;63844;50.042;19.224;2023-08-17T01:38:10;100799.48;;;27.28;59.69
75247;BME280;63844;50.042;19.224;2023-08-17T01:39:50;100796.81;;;27.27;59.71
75247;BME280;63844;50.042;19.224;2023-08-17T01:41:28;100797.59;;;27.27;59.69
75247;BME280;63844;50.042;19.224;2023-08-17T01:43:05;100794.41;;;27.26;59.55
75247;BME280;63844;50.042;19.224;2023-08-17T01:44:41;100786.67;;;27.25;60.03
75247;BME280;63844;50.042;19.224;2023-08-17T01:46:17;100785.83;;;27.24;59.97
75247;BME280;63844;50.042;19.224;2023-08-17T01:47:52;100787.88;;;27.24;60.00
75247;BME280;63844;50.042;19.224;2023-08-17T01:49:28;100787.80;;;27.23;59.93
75247;BME280;63844;50.042;19.224;2023-08-17T01:51:03;100792.57;;;27.23;60.23
75247;BME280;63844;50.042;19.224;2023-08-17T01:52:38;100798.88;;;27.22;60.09
75247;BME280;63844;50.042;19.224;2023-08-17T01:54:14;100798.50;;;27.22;59.96
75247;BME280;63844;50.042;19.224;2023-08-17T01:55:49;100799.39;;;27.22;60.05
75247;BME280;63844;50.042;19.224;2023-08-17T01:57:25;100802.70;;;27.22;60.18
75247;BME280;63844;50.042;19.224;2023-08-17T01:59:00;100802.55;;;27.21;60.01
75247;BME280;63844;50.042;19.224;2023-08-17T02:00:35;100799.59;;;27.22;60.09
75247;BME280;63844;50.042;19.224;2023-08-17T02:02:11;100800.68;;;27.22;60.12
75247;BME280;63844;50.042;19.224;2023-08-17T02:03:49;100804.02;;;27.21;60.24
75247;BME280;63844;50.042;19.224;2023-08-17T02:05:25;100811.04;;;27.20;60.17
75247;BME280;63844;50.042;19.224;2023-08-17T02:07:03;100813.45;;;27.20;60.11
75247;BME280;63844;50.042;19.224;2023-08-17T02:08:38;100810.08;;;27.19;60.34
75247;BME280;63844;50.042;19.224;2023-08-17T02:10:14;100808.52;;;27.14;60.29
75247;BME280;63844;50.042;19.224;2023-08-17T02:11:50;100805.39;;;27.13;60.16
75247;BME280;63844;50.042;19.224;2023-08-17T02:13:25;100796.45;;;27.14;60.36
75247;BME280;63844;50.042;19.224;2023-08-17T02:15:02;100794.41;;;27.14;60.29
75247;BME280;63844;50.042;19.224;2023-08-17T02:16:38;100790.24;;;27.14;60.43
75247;BME280;63844;50.042;19.224;2023-08-17T02:18:13;100786.98;;;27.14;60.28
75247;BME280;63844;50.042;19.224;2023-08-17T02:19:48;100783.71;;;27.14;60.42
75247;BME280;63844;50.042;19.224;2023-08-17T02:21:24;100786.02;;;27.14;60.39
75247;BME280;63844;50.042;19.224;2023-08-17T02:23:02;100791.48;;;27.14;60.32
75247;BME280;63844;50.042;19.224;2023-08-17T02:24:37;100784.34;;;27.15;60.34
75247;BME280;63844;50.042;19.224;2023-08-17T02:26:13;100789.91;;;27.13;60.08
75247;BME280;63844;50.042;19.224;2023-08-17T02:27:48;100793.08;;;27.13;60.24
75247;BME280;63844;50.042;19.224;2023-08-17T02:29:23;100789.16;;;27.12;60.39
75247;BME280;63844;50.042;19.224;2023-08-17T02:30:59;100786.36;;;27.11;60.32
75247;BME280;63844;50.042;19.224;2023-08-17T02:32:34;100789.08;;;27.11;60.24
75247;BME280;63844;50.042;19.224;2023-08-17T02:34:10;100795.13;;;27.12;60.09
75247;BME280;63844;50.042;19.224;2023-08-17T02:35:49;100792.91;;;27.13;60.31
75247;BME280;63844;50.042;19.224;2023-08-17T02:37:24;100788.20;;;27.12;60.10
75247;BME280;63844;50.042;19.224;2023-08-17T02:39:00;100792.33;;;27.13;60.29
75247;BME280;63844;50.042;19.224;2023-08-17T02:40:35;100794.35;;;27.13;60.01
75247;BME280;63844;50.042;19.224;2023-08-17T02:42:10;100797.16;;;27.10;60.11
75247;BME280;63844;50.042;19.224;2023-08-17T02:43:46;100797.50;;;27.10;60.19
75247;BME280;63844;50.042;19.224;2023-08-17T02:45:21;100794.58;;;27.10;60.06
75247;BME280;63844;50.042;19.224;2023-08-17T02:46:57;100791.40;;;27.11;60.20
75247;BME280;63844;50.042;19.224;2023-08-17T02:48:33;100787.41;;;27.09;60.34
75247;BME280;63844;50.042;19.224;2023-08-17T02:50:09;100782.23;;;27.10;59.99
75247;BME280;63844;50.042;19.224;2023-08-17T02:51:44;100781.52;;;27.10;60.13
75247;BME280;63844;50.042;19.224;2023-08-17T02:53:20;100778.38;;;27.08;60.19
75247;BME280;63844;50.042;19.224;2023-08-17T02:54:55;100782.67;;;27.07;60.25
75247;BME280;63844;50.042;19.224;2023-08-17T02:56:30;100783.69;;;27.06;59.93
75247;BME280;63844;50.042;19.224;2023-08-17T02:58:06;100784.88;;;27.06;60.09
75247;BME280;63844;50.042;19.224;2023-08-17T02:59:41;100785.69;;;27.05;60.02
75247;BME280;63844;50.042;19.224;2023-08-17T03:01:16;100788.79;;;27.03;60.30
75247;BME280;63844;50.042;19.224;2023-08-17T03:02:52;100794.54;;;27.02;60.04
75247;BME280;63844;50.042;19.224;2023-08-17T03:04:29;100795.56;;;27.03;60.06
75247;BME280;63844;50.042;19.224;2023-08-17T03:06:04;100801.84;;;27.04;60.08
75247;BME280;63844;50.042;19.224;2023-08-17T03:07:41;100801.94;;;27.04;60.06
75247;BME280;63844;50.042;19.224;2023-08-17T03:09:16;100800.45;;;27.05;60.08
75247;BME280;63844;50.042;19.224;2023-08-17T03:10:52;100806.44;;;27.05;60.14
75247;BME280;63844;50.042;19.224;2023-08-17T03:12:27;100805.17;;;27.03;60.17
75247;BME280;63844;50.042;19.224;2023-08-17T03:14:03;100805.09;;;27.00;60.24
75247;BME280;63844;50.042;19.224;2023-08-17T03:15:38;100805.98;;;26.97;60.49
75247;BME280;63844;50.042;19.224;2023-08-17T03:17:15;100812.44;;;26.95;60.36
75247;BME280;63844;50.042;19.224;2023-08-17T03:18:50;100814.20;;;26.93;60.56
75247;BME280;63844;50.042;19.224;2023-08-17T03:20:26;100815.33;;;26.93;60.64
75247;BME280;63844;50.042;19.224;2023-08-17T03:22:01;100815.50;;;26.93;60.40
75247;BME280;63844;50.042;19.224;2023-08-17T03:23:36;100818.56;;;26.93;60.30
75247;BME280;63844;50.042;19.224;2023-08-17T03:25:12;100819.16;;;26.95;60.30
75247;BME280;63844;50.042;19.224;2023-08-17T03:26:48;100819.66;;;26.95;60.12
75247;BME280;63844;50.042;19.224;2023-08-17T03:28:23;100823.24;;;26.96;60.18
75247;BME280;63844;50.042;19.224;2023-08-17T03:30:00;100826.14;;;26.96;60.35
75247;BME280;63844;50.042;19.224;2023-08-17T03:31:35;100828.79;;;26.95;60.13
75247;BME280;63844;50.042;19.224;2023-08-17T03:33:11;100830.08;;;26.94;60.34
75247;BME280;63844;50.042;19.224;2023-08-17T03:34:46;100829.36;;;26.93;60.53
75247;BME280;63844;50.042;19.224;2023-08-17T03:36:22;100828.98;;;26.91;60.39
75247;BME280;63844;50.042;19.224;2023-08-17T03:37:57;100830.13;;;26.91;60.64
75247;BME280;63844;50.042;19.224;2023-08-17T03:39:32;100833.29;;;26.90;60.62
75247;BME280;63844;50.042;19.224;2023-08-17T03:41:08;100835.81;;;26.89;60.59
75247;BME280;63844;50.042;19.224;2023-08-17T03:42:44;100832.29;;;26.85;60.73
75247;BME280;63844;50.042;19.224;2023-08-17T03:44:20;100830.92;;;26.80;60.74
75247;BME280;63844;50.042;19.224;2023-08-17T03:45:56;100829.82;;;26.76;60.67
75247;BME280;63844;50.042;19.224;2023-08-17T03:47:31;100830.72;;;26.75;60.92
75247;BME280;63844;50.042;19.224;2023-08-17T03:49:06;100827.03;;;26.73;60.99
75247;BME280;63844;50.042;19.224;2023-08-17T03:50:42;100827.18;;;26.71;60.92
75247;BME280;63844;50.042;19.224;2023-08-17T03:52:17;100828.30;;;26.69;60.77
75247;BME280;63844;50.042;19.224;2023-08-17T03:53:52;100824.47;;;26.65;61.09
75247;BME280;63844;50.042;19.224;2023-08-17T03:55:27;100828.27;;;26.63;61.13
75247;BME280;63844;50.042;19.224;2023-08-17T03:57:04;100830.05;;;26.62;61.28
75247;BME280;63844;50.042;19.224;2023-08-17T03:58:41;100832.64;;;26.60;61.04
75247;BME280;63844;50.042;19.224;2023-08-17T04:00:18;100831.11;;;26.57;61.08
75247;BME280;63844;50.042;19.224;2023-08-17T04:01:54;100837.58;;;26.57;61.14
75247;BME280;63844;50.042;19.224;2023-08-17T04:03:29;100835.53;;;26.58;61.15
75247;BME280;63844;50.042;19.224;2023-08-17T04:05:05;100835.30;;;26.55;61.04
75247;BME280;63844;50.042;19.224;2023-08-17T04:06:42;100831.02;;;26.53;61.06
75247;BME280;63844;50.042;19.224;2023-08-17T04:08:17;100828.41;;;26.50;60.97
75247;BME280;63844;50.042;19.224;2023-08-17T04:09:52;100826.52;;;26.49;60.97
75247;BME280;63844;50.042;19.224;2023-08-17T04:11:28;100827.69;;;26.46;61.08
75247;BME280;63844;50.042;19.224;2023-08-17T04:13:03;100833.59;;;26.43;61.07
75247;BME280;63844;50.042;19.224;2023-08-17T04:14:38;100833.33;;;26.41;61.20
75247;BME280;63844;50.042;19.224;2023-08-17T04:16:14;100840.07;;;26.37;61.37
75247;BME280;63844;50.042;19.224;2023-08-17T04:17:49;100836.63;;;26.35;61.44
75247;BME280;63844;50.042;19.224;2023-08-17T04:19:24;100845.94;;;26.33;61.46
75247;BME280;63844;50.042;19.224;2023-08-17T04:21:03;100844.91;;;26.34;61.58
75247;BME280;63844;50.042;19.224;2023-08-17T04:22:38;100837.50;;;26.35;61.39
75247;BME280;63844;50.042;19.224;2023-08-17T04:24:13;100838.55;;;26.34;61.44
75247;BME280;63844;50.042;19.224;2023-08-17T04:25:49;100844.06;;;26.30;61.46
75247;BME280;63844;50.042;19.224;2023-08-17T04:27:24;100840.98;;;26.28;61.69
75247;BME280;63844;50.042;19.224;2023-08-17T04:29:01;100846.30;;;26.28;61.68
75247;BME280;63844;50.042;19.224;2023-08-17T04:30:37;100846.67;;;26.28;61.78
75247;BME280;63844;50.042;19.224;2023-08-17T04:32:16;100840.09;;;26.26;61.99
75247;BME280;63844;50.042;19.224;2023-08-17T04:33:51;100841.40;;;26.24;62.00
75247;BME280;63844;50.042;19.224;2023-08-17T04:35:27;100840.72;;;26.24;62.14
75247;BME280;63844;50.042;19.224;2023-08-17T04:37:02;100840.97;;;26.25;62.09
75247;BME280;63844;50.042;19.224;2023-08-17T04:38:38;100839.38;;;26.24;61.94
75247;BME280;63844;50.042;19.224;2023-08-17T04:40:14;100836.32;;;26.22;61.96
75247;BME280;63844;50.042;19.224;2023-08-17T04:41:50;100839.52;;;26.23;61.77
75247;BME280;63844;50.042;19.224;2023-08-17T04:43:25;100837.06;;;26.26;61.68
75247;BME280;63844;50.042;19.224;2023-08-17T04:45:01;100835.30;;;26.27;61.40
75247;BME280;63844;50.042;19.224;2023-08-17T04:46:36;100838.90;;;26.27;61.44
75247;BME280;63844;50.042;19.224;2023-08-17T04:48:11;100836.31;;;26.31;61.24
75247;BME280;63844;50.042;19.224;2023-08-17T04:49:47;100837.61;;;26.36;61.13
75247;BME280;63844;50.042;19.224;2023-08-17T04:51:22;100838.56;;;26.39;61.01
75247;BME280;63844;50.042;19.224;2023-08-17T04:52:57;100839.81;;;26.39;61.16
75247;BME280;63844;50.042;19.224;2023-08-17T04:54:33;100844.48;;;26.40;60.90
75247;BME280;63844;50.042;19.224;2023-08-17T04:56:09;100841.48;;;26.41;61.01
75247;BME280;63844;50.042;19.224;2023-08-17T04:57:45;100841.63;;;26.41;60.82
75247;BME280;63844;50.042;19.224;2023-08-17T04:59:20;100843.52;;;26.42;60.79
75247;BME280;63844;50.042;19.224;2023-08-17T05:00:58;100844.42;;;26.44;60.68
75247;BME280;63844;50.042;19.224;2023-08-17T05:02:35;100843.54;;;26.46;60.48
75247;BME280;63844;50.042;19.224;2023-08-17T05:04:10;100848.92;;;26.46;60.51
75247;BME280;63844;50.042;19.224;2023-08-17T05:05:45;100841.69;;;26.48;60.51
75247;BME280;63844;50.042;19.224;2023-08-17T05:07:21;100846.30;;;26.49;60.26
75247;BME280;63844;50.042;19.224;2023-08-17T05:08:57;100846.84;;;26.49;60.34
75247;BME280;63844;50.042;19.224;2023-08-17T05:10:32;100846.27;;;26.49;60.27
75247;BME280;63844;50.042;19.224;2023-08-17T05:12:08;100853.35;;;26.51;60.22
75247;BME280;63844;50.042;19.224;2023-08-17T05:13:44;100851.79;;;26.52;60.23
75247;BME280;63844;50.042;19.224;2023-08-17T05:15:19;100851.01;;;26.52;60.19
75247;BME280;63844;50.042;19.224;2023-08-17T05:16:54;100851.15;;;26.53;59.96
75247;BME280;63844;50.042;19.224;2023-08-17T05:18:29;100849.90;;;26.54;59.89
75247;BME280;63844;50.042;19.224;2023-08-17T05:20:05;100850.05;;;26.55;59.69
75247;BME280;63844;50.042;19.224;2023-08-17T05:21:43;100848.51;;;26.54;59.63
75247;BME280;63844;50.042;19.224;2023-08-17T05:23:18;100853.63;;;26.55;59.48
75247;BME280;63844;50.042;19.224;2023-08-17T05:24:54;100854.16;;;26.54;59.58
75247;BME280;63844;50.042;19.224;2023-08-17T05:26:29;100855.08;;;26.53;59.04
75247;BME280;63844;50.042;19.224;2023-08-17T05:28:05;100852.86;;;26.52;59.05
75247;BME280;63844;50.042;19.224;2023-08-17T05:29:40;100851.86;;;26.50;59.00
75247;BME280;63844;50.042;19.224;2023-08-17T05:31:16;100850.28;;;26.49;58.99
75247;BME280;63844;50.042;19.224;2023-08-17T05:32:51;100849.09;;;26.50;58.87
75247;BME280;63844;50.042;19.224;2023-08-17T05:34:27;100850.88;;;26.50;58.65
75247;BME280;63844;50.042;19.224;2023-08-17T05:36:02;100850.45;;;26.51;58.71
75247;BME280;63844;50.042;19.224;2023-08-17T05:37:38;100851.40;;;26.50;58.51
75247;BME280;63844;50.042;19.224;2023-08-17T05:39:13;100850.80;;;26.51;58.50
75247;BME280;63844;50.042;19.224;2023-08-17T05:40:57;100854.03;;;26.51;58.52
75247;BME280;63844;50.042;19.224;2023-08-17T05:42:33;100854.15;;;26.50;58.31
75247;BME280;63844;50.042;19.224;2023-08-17T05:44:08;100852.39;;;26.51;58.20
75247;BME280;63844;50.042;19.224;2023-08-17T05:45:47;100849.13;;;26.51;58.22
75247;BME280;63844;50.042;19.224;2023-08-17T05:47:22;100845.70;;;26.51;58.09
75247;BME280;63844;50.042;19.224;2023-08-17T05:48:57;100848.68;;;26.50;58.00
75247;BME280;63844;50.042;19.224;2023-08-17T05:50:34;100844.11;;;26.51;58.06
75247;BME280;63844;50.042;19.224;2023-08-17T05:52:09;100840.33;;;26.50;57.93
75247;BME280;63844;50.042;19.224;2023-08-17T05:53:46;100840.83;;;26.51;58.02
75247;BME280;63844;50.042;19.224;2023-08-17T05:55:21;100836.48;;;26.51;57.90
75247;BME280;63844;50.042;19.224;2023-08-17T05:56:56;100837.33;;;26.48;57.94
75247;BME280;63844;50.042;19.224;2023-08-17T05:58:32;100835.13;;;26.46;57.92
75247;BME280;63844;50.042;19.224;2023-08-17T06:00:09;100834.48;;;26.45;57.79
75247;BME280;63844;50.042;19.224;2023-08-17T06:01:47;100833.27;;;26.47;57.88
75247;BME280;63844;50.042;19.224;2023-08-17T06:03:23;100831.66;;;26.46;57.68
75247;BME280;63844;50.042;19.224;2023-08-17T06:04:58;100831.40;;;26.47;57.73
75247;BME280;63844;50.042;19.224;2023-08-17T06:06:33;100832.56;;;26.48;57.68
75247;BME280;63844;50.042;19.224;2023-08-17T06:08:09;100831.03;;;26.47;57.71
75247;BME280;63844;50.042;19.224;2023-08-17T06:09:45;100831.30;;;26.48;57.71
75247;BME280;63844;50.042;19.224;2023-08-17T06:11:20;100831.58;;;26.47;57.52
75247;BME280;63844;50.042;19.224;2023-08-17T06:12:56;100835.80;;;26.48;57.72
75247;BME280;63844;50.042;19.224;2023-08-17T06:14:33;100832.34;;;26.51;57.50
75247;BME280;63844;50.042;19.224;2023-08-17T06:16:09;100831.15;;;26.51;57.47
75247;BME280;63844;50.042;19.224;2023-08-17T06:17:45;100834.87;;;26.52;57.58
75247;BME280;63844;50.042;19.224;2023-08-17T06:19:21;100835.55;;;26.53;57.73
75247;BME280;63844;50.042;19.224;2023-08-17T06:20:56;100838.81;;;26.51;57.60
75247;BME280;63844;50.042;19.224;2023-08-17T06:22:31;100836.23;;;26.51;57.47
75247;BME280;63844;50.042;19.224;2023-08-17T06:24:07;100838.57;;;26.51;57.23
75247;BME280;63844;50.042;19.224;2023-08-17T06:25:42;100838.68;;;26.52;57.22
75247;BME280;63844;50.042;19.224;2023-08-17T06:27:18;100839.53;;;26.53;57.21
75247;BME280;63844;50.042;19.224;2023-08-17T06:28:54;100843.97;;;26.54;57.25
75247;BME280;63844;50.042;19.224;2023-08-17T06:30:30;100844.38;;;26.55;57.15
75247;BME280;63844;50.042;19.224;2023-08-17T06:32:06;100844.78;;;26.56;56.99
75247;BME280;63844;50.042;19.224;2023-08-17T06:33:41;100847.32;;;26.58;56.93
75247;BME280;63844;50.042;19.224;2023-08-17T06:35:17;100848.58;;;26.60;56.91
75247;BME280;63844;50.042;19.224;2023-08-17T06:37:01;100848.86;;;26.61;56.94
75247;BME280;63844;50.042;19.224;2023-08-17T06:38:37;100849.07;;;26.62;57.16
75247;BME280;63844;50.042;19.224;2023-08-17T06:40:12;100852.61;;;26.63;57.16
75247;BME280;63844;50.042;19.224;2023-08-17T06:41:47;100851.64;;;26.64;57.00
75247;BME280;63844;50.042;19.224;2023-08-17T06:43:23;100851.29;;;26.63;57.09
75247;BME280;63844;50.042;19.224;2023-08-17T06:44:58;100854.71;;;26.64;56.97
75247;BME280;63844;50.042;19.224;2023-08-17T06:46:34;100854.40;;;26.65;57.01
75247;BME280;63844;50.042;19.224;2023-08-17T06:48:09;100862.19;;;26.68;57.07
75247;BME280;63844;50.042;19.224;2023-08-17T06:49:44;100862.63;;;26.69;57.06
75247;BME280;63844;50.042;19.224;2023-08-17T06:51:20;100859.84;;;26.69;57.17
75247;BME280;63844;50.042;19.224;2023-08-17T06:52:55;100858.73;;;26.71;57.08
75247;BME280;63844;50.042;19.224;2023-08-17T06:54:30;100855.28;;;26.73;56.91
75247;BME280;63844;50.042;19.224;2023-08-17T06:56:09;100857.02;;;26.75;56.85
75247;BME280;63844;50.042;19.224;2023-08-17T06:57:44;100858.39;;;26.76;56.81
75247;BME280;63844;50.042;19.224;2023-08-17T06:59:20;100859.34;;;26.77;56.87
75247;BME280;63844;50.042;19.224;2023-08-17T07:00:55;100862.44;;;26.79;56.48
75247;BME280;63844;50.042;19.224;2023-08-17T07:02:31;100864.30;;;26.80;56.59
75247;BME280;63844;50.042;19.224;2023-08-17T07:04:06;100869.13;;;26.83;56.67
75247;BME280;63844;50.042;19.224;2023-08-17T07:05:42;100869.48;;;26.84;56.73
75247;BME280;63844;50.042;19.224;2023-08-17T07:07:18;100872.51;;;26.87;56.72
75247;BME280;63844;50.042;19.224;2023-08-17T07:08:53;100871.55;;;26.89;56.57
75247;BME280;63844;50.042;19.224;2023-08-17T07:10:28;100876.50;;;26.90;56.92
75247;BME280;63844;50.042;19.224;2023-08-17T07:12:04;100872.07;;;26.91;57.01
75247;BME280;63844;50.042;19.224;2023-08-17T07:13:40;100876.89;;;26.92;56.79
75247;BME280;63844;50.042;19.224;2023-08-17T07:15:15;100874.55;;;26.93;56.76
75247;BME280;63844;50.042;19.224;2023-08-17T07:16:50;100873.45;;;26.95;56.60
75247;BME280;63844;50.042;19.224;2023-08-17T07:18:25;100874.13;;;26.96;56.48
75247;BME280;63844;50.042;19.224;2023-08-17T07:20:01;100874.09;;;26.96;56.72
75247;BME280;63844;50.042;19.224;2023-08-17T07:21:36;100877.66;;;26.96;56.82
75247;BME280;63844;50.042;19.224;2023-08-17T07:23:11;100876.08;;;26.98;56.66
75247;BME280;63844;50.042;19.224;2023-08-17T07:24:47;100878.70;;;26.99;56.38
75247;BME280;63844;50.042;19.224;2023-08-17T07:26:23;100876.69;;;27.00;56.43
75247;BME280;63844;50.042;19.224;2023-08-17T07:27:58;100876.06;;;27.01;56.55
75247;BME280;63844;50.042;19.224;2023-08-17T07:29:33;100872.20;;;27.03;56.30
75247;BME280;63844;50.042;19.224;2023-08-17T07:31:09;100871.64;;;27.05;56.20
75247;BME280;63844;50.042;19.224;2023-08-17T07:32:44;100877.52;;;27.06;56.31
75247;BME280;63844;50.042;19.224;2023-08-17T07:34:19;100873.33;;;27.08;56.15
75247;BME280;63844;50.042;19.224;2023-08-17T07:35:55;100872.62;;;27.10;56.24
75247;BME280;63844;50.042;19.224;2023-08-17T07:37:33;100875.13;;;27.12;56.18
75247;BME280;63844;50.042;19.224;2023-08-17T07:39:08;100877.83;;;27.14;56.08
75247;BME280;63844;50.042;19.224;2023-08-17T07:40:43;100873.29;;;27.16;56.18
75247;BME280;63844;50.042;19.224;2023-08-17T07:42:19;100874.45;;;27.17;56.11
75247;BME280;63844;50.042;19.224;2023-08-17T07:43:54;100875.00;;;27.17;55.95
75247;BME280;63844;50.042;19.224;2023-08-17T07:45:29;100873.11;;;27.18;56.04
75247;BME280;63844;50.042;19.224;2023-08-17T07:47:05;100870.45;;;27.19;56.04
75247;BME280;63844;50.042;19.224;2023-08-17T07:48:40;100870.38;;;27.19;56.07
75247;BME280;63844;50.042;19.224;2023-08-17T07:50:16;100867.36;;;27.19;56.18
75247;BME280;63844;50.042;19.224;2023-08-17T07:51:51;100869.70;;;27.19;56.28
75247;BME280;63844;50.042;19.224;2023-08-17T07:53:26;100869.58;;;27.19;56.37
75247;BME280;63844;50.042;19.224;2023-08-17T07:55:02;100864.92;;;27.18;56.24
75247;BME280;63844;50.042;19.224;2023-08-17T07:56:39;100865.02;;;27.17;56.20
75247;BME280;63844;50.042;19.224;2023-08-17T07:58:14;100866.85;;;27.17;56.50
75247;BME280;63844;50.042;19.224;2023-08-17T07:59:49;100868.91;;;27.16;56.41
75247;BME280;63844;50.042;19.224;2023-08-17T08:01:26;100862.50;;;27.17;56.35
75247;BME280;63844;50.042;19.224;2023-08-17T08:03:01;100863.45;;;27.16;56.52
75247;BME280;63844;50.042;19.224;2023-08-17T08:04:37;100859.66;;;27.16;56.46
75247;BME280;63844;50.042;19.224;2023-08-17T08:06:12;100860.73;;;27.16;56.24
75247;BME280;63844;50.042;19.224;2023-08-17T08:07:47;100861.20;;;27.17;56.36
75247;BME280;63844;50.042;19.224;2023-08-17T08:09:23;100863.34;;;27.16;56.43
75247;BME280;63844;50.042;19.224;2023-08-17T08:10:58;100864.27;;;27.17;56.26
75247;BME280;63844;50.042;19.224;2023-08-17T08:12:33;100866.66;;;27.18;56.37
75247;BME280;63844;50.042;19.224;2023-08-17T08:14:09;100868.54;;;27.19;56.25
75247;BME280;63844;50.042;19.224;2023-08-17T08:15:44;100869.99;;;27.21;56.33
75247;BME280;63844;50.042;19.224;2023-08-17T08:17:19;100868.41;;;27.22;56.44